Terminal Aerodrome Forecast
Issued by NWS

Home | Current Version | Previous Version | Text Only | Print | Product List | Glossary On
Versions: 1 2 3 4 5 6 7 8 9 10 11 12 13 14 15 16 17 18 19 20 21 22 23 24 25 26 27 28 29 30
000
FTUS45 KBOU 170246 AAA
TAFAPA
TAF AMD
KAPA 170246Z 1703/1724 10005KT P6SM SCT120 BKN220
     FM170400 08007KT P6SM FEW060 SCT080 BKN120
     FM170500 08008KT P6SM SCT028 BKN050
     FM170600 10008KT P6SM BKN015 OVC025
      TEMPO 1708/1712 3SM -FZDZSN BR OVC005
     FM171200 14006KT P6SM VCFG BKN012 OVC022
     FM171700 16007KT P6SM SCT030 BKN050
     FM172100 20008KT P6SM SCT060 BKN120=

USA.gov is the U.S. government's official web portal to all federal, state and local government web resources and services.